Schedule Details

Flight Number: CPX814
Departure: RAF Mildenhall (EGUN) at N/A
Arrival: Joint Base McGuire Dix Lakehurst (KWRI) at N/A


Current Weather Information
EGUN 180456Z AUTO 17005KT 9999 SCT095 SCT110 07/07 A2993 RMK AO2 SLP139 T00740074 $
KWRI 180526Z 10004KT 7SM OVC009 01/01 A2989 RMK AO2A RAE11 SLP123 $

Route Map